CheckWX is a tool to help pilots better visualize weather data.  It is not intended as a substitute for an official pre-flight weather briefing.

15:00:31 UTC

KBWG METAR
Bowling Green-Warren County Regional Airport
Bowling Green, Kentucky, USA
Current

8 mins ago

KBWG 101453Z AUTO 24007KT 10SM FEW024 29/23 A2993 RMK AO2 SLP127 T02940233 58002
Observed
Jul-10 @ 14:53 UTC
Wind
  • 240° at 7 KTS
Visibility
10 SM
Flight Rules
VFR
Cloud Levels
  • Few at 2,400' AGL
Temperature
29°C / 84°F
Dewpoint
23°C / 73°F
Humidity
70%
Altimeter
29.93" Hg
Pressure
1013.52 hPa
Previous

39 mins ago

KBWG 101422Z AUTO 26007KT 10SM FEW018 29/24 A2993 RMK AO2 T02890239
Observed
Jul-10 @ 14:22 UTC
Wind
  • 260° at 7 KTS
Visibility
10 SM
Flight Rules
VFR
Cloud Levels
  • Few at 1,800' AGL
Temperature
29°C / 84°F
Dewpoint
24°C / 75°F
Humidity
74%
Altimeter
29.93" Hg
Pressure
1013.52 hPa
Previous

1 hour ago

KBWG 101353Z AUTO 25008KT 10SM BKN017 BKN023 28/24 A2994 RMK AO2 SLP130 T02780239
Observed
Jul-10 @ 13:53 UTC
Wind
  • 250° at 8 KTS
Visibility
10 SM
Flight Rules
MVFR
Cloud Levels
  • Broken at 1,700' AGL
  • Broken at 2,300' AGL
Temperature
28°C / 82°F
Dewpoint
24°C / 75°F
Humidity
79%
Altimeter
29.94" Hg
Pressure
1013.92 hPa